Ballantine, Montana
Current Conditions -  °F | °C
As of 5:53 AM on Thursday 23 Oct 2014 (Local Time) from KBIL Reporting Station
Broken Clouds Broken Clouds  
Wind Chill: 50°   Ceiling: 23000
Heat Index: 50°   Visibility: 10mi
Dew Point: 23°   Wind: 15mph
Humidity: 35%   Direction: 240°WSW
Pressure: 29.9"   Gusts: NA
Location:  45.95°N, 108.15°W
Report Text: KBIL 231153Z 24013KT 10SM FEW160 BKN230 10/M05 A2990 RMK AO2 SLP113 T01001050 10111 20072 57009
Loading
Personal Weather Stations






























Interactive Weather Map New forecast layout! Learn more

10-Day Weather Forecast

Advertisements
Track Severe Weather on mobile